sensor_id;sensor_type;location;lat;lon;timestamp;P1;durP1;ratioP1;P2;durP2;ratioP2
53145;SDS011;39042;53.150;5.898;2024-01-30T00:01:50;38.70;;;22.57;;
53145;SDS011;39042;53.150;5.898;2024-01-30T00:04:16;36.03;;;21.93;;
53145;SDS011;39042;53.150;5.898;2024-01-30T00:06:43;39.47;;;23.83;;
53145;SDS011;39042;53.150;5.898;2024-01-30T00:09:09;36.83;;;22.75;;
53145;SDS011;39042;53.150;5.898;2024-01-30T00:11:36;34.45;;;21.98;;
53145;SDS011;39042;53.150;5.898;2024-01-30T00:14:03;35.05;;;21.60;;
53145;SDS011;39042;53.150;5.898;2024-01-30T00:16:29;35.58;;;23.35;;
53145;SDS011;39042;53.150;5.898;2024-01-30T00:18:55;36.97;;;22.00;;
53145;SDS011;39042;53.150;5.898;2024-01-30T00:21:21;38.38;;;23.33;;
53145;SDS011;39042;53.150;5.898;2024-01-30T00:23:47;36.15;;;22.85;;
53145;SDS011;39042;53.150;5.898;2024-01-30T00:26:13;33.97;;;21.93;;
53145;SDS011;39042;53.150;5.898;2024-01-30T00:28:42;38.97;;;22.83;;
53145;SDS011;39042;53.150;5.898;2024-01-30T00:31:08;40.88;;;23.05;;
53145;SDS011;39042;53.150;5.898;2024-01-30T00:33:40;37.97;;;23.45;;
53145;SDS011;39042;53.150;5.898;2024-01-30T00:36:07;39.80;;;23.98;;
53145;SDS011;39042;53.150;5.898;2024-01-30T00:38:34;36.40;;;22.80;;
53145;SDS011;39042;53.150;5.898;2024-01-30T00:41:00;30.73;;;18.38;;
53145;SDS011;39042;53.150;5.898;2024-01-30T00:43:29;40.63;;;23.17;;
53145;SDS011;39042;53.150;5.898;2024-01-30T00:45:56;38.65;;;24.55;;
53145;SDS011;39042;53.150;5.898;2024-01-30T00:48:23;39.20;;;24.38;;
53145;SDS011;39042;53.150;5.898;2024-01-30T00:50:49;39.77;;;23.90;;
53145;SDS011;39042;53.150;5.898;2024-01-30T00:53:14;37.67;;;22.70;;
53145;SDS011;39042;53.150;5.898;2024-01-30T00:55:40;36.63;;;23.33;;
53145;SDS011;39042;53.150;5.898;2024-01-30T00:58:06;37.45;;;24.33;;
53145;SDS011;39042;53.150;5.898;2024-01-30T01:00:33;38.38;;;23.17;;
53145;SDS011;39042;53.150;5.898;2024-01-30T01:02:59;38.15;;;23.90;;
53145;SDS011;39042;53.150;5.898;2024-01-30T01:05:25;37.28;;;23.30;;
53145;SDS011;39042;53.150;5.898;2024-01-30T01:07:51;39.65;;;23.70;;
53145;SDS011;39042;53.150;5.898;2024-01-30T01:10:17;40.38;;;24.42;;
53145;SDS011;39042;53.150;5.898;2024-01-30T01:12:43;41.42;;;25.00;;
53145;SDS011;39042;53.150;5.898;2024-01-30T01:15:09;41.45;;;24.05;;
53145;SDS011;39042;53.150;5.898;2024-01-30T01:17:36;38.28;;;24.17;;
53145;SDS011;39042;53.150;5.898;2024-01-30T01:20:05;40.05;;;23.95;;
53145;SDS011;39042;53.150;5.898;2024-01-30T01:24:58;41.17;;;23.52;;
53145;SDS011;39042;53.150;5.898;2024-01-30T01:27:24;37.83;;;23.45;;
53145;SDS011;39042;53.150;5.898;2024-01-30T01:29:51;41.80;;;25.33;;
53145;SDS011;39042;53.150;5.898;2024-01-30T01:32:17;43.35;;;25.73;;
53145;SDS011;39042;53.150;5.898;2024-01-30T01:34:43;39.72;;;25.25;;
53145;SDS011;39042;53.150;5.898;2024-01-30T01:37:09;40.28;;;24.50;;
53145;SDS011;39042;53.150;5.898;2024-01-30T01:39:35;40.88;;;24.10;;
53145;SDS011;39042;53.150;5.898;2024-01-30T01:42:01;35.73;;;19.60;;
53145;SDS011;39042;53.150;5.898;2024-01-30T01:44:27;38.17;;;24.50;;
53145;SDS011;39042;53.150;5.898;2024-01-30T01:46:52;43.00;;;24.90;;
53145;SDS011;39042;53.150;5.898;2024-01-30T01:51:46;39.60;;;23.88;;
53145;SDS011;39042;53.150;5.898;2024-01-30T01:54:13;38.28;;;23.60;;
53145;SDS011;39042;53.150;5.898;2024-01-30T01:56:41;39.13;;;24.02;;
53145;SDS011;39042;53.150;5.898;2024-01-30T02:01:33;40.72;;;23.73;;
53145;SDS011;39042;53.150;5.898;2024-01-30T02:04:01;41.50;;;23.85;;
53145;SDS011;39042;53.150;5.898;2024-01-30T02:06:27;30.98;;;18.77;;
53145;SDS011;39042;53.150;5.898;2024-01-30T02:08:54;41.33;;;25.30;;
53145;SDS011;39042;53.150;5.898;2024-01-30T02:11:20;30.30;;;18.58;;
53145;SDS011;39042;53.150;5.898;2024-01-30T02:13:48;38.20;;;23.15;;
53145;SDS011;39042;53.150;5.898;2024-01-30T02:16:14;41.55;;;23.77;;
53145;SDS011;39042;53.150;5.898;2024-01-30T02:18:40;43.63;;;23.97;;
53145;SDS011;39042;53.150;5.898;2024-01-30T02:21:12;39.92;;;24.80;;
53145;SDS011;39042;53.150;5.898;2024-01-30T02:23:39;41.75;;;25.25;;
53145;SDS011;39042;53.150;5.898;2024-01-30T02:26:06;42.17;;;24.52;;
53145;SDS011;39042;53.150;5.898;2024-01-30T02:28:32;39.85;;;23.40;;
53145;SDS011;39042;53.150;5.898;2024-01-30T02:30:57;42.10;;;23.07;;
53145;SDS011;39042;53.150;5.898;2024-01-30T02:33:23;44.43;;;23.20;;
53145;SDS011;39042;53.150;5.898;2024-01-30T02:35:49;34.35;;;22.77;;
53145;SDS011;39042;53.150;5.898;2024-01-30T02:38:15;36.90;;;21.73;;
53145;SDS011;39042;53.150;5.898;2024-01-30T02:40:41;28.02;;;17.17;;
53145;SDS011;39042;53.150;5.898;2024-01-30T02:43:07;40.30;;;23.73;;
53145;SDS011;39042;53.150;5.898;2024-01-30T02:45:33;39.10;;;22.30;;
53145;SDS011;39042;53.150;5.898;2024-01-30T02:47:59;42.90;;;23.98;;
53145;SDS011;39042;53.150;5.898;2024-01-30T02:50:25;44.47;;;25.07;;
53145;SDS011;39042;53.150;5.898;2024-01-30T02:52:51;38.60;;;22.67;;
53145;SDS011;39042;53.150;5.898;2024-01-30T02:55:16;37.07;;;22.90;;
53145;SDS011;39042;53.150;5.898;2024-01-30T02:57:45;36.83;;;22.27;;
53145;SDS011;39042;53.150;5.898;2024-01-30T03:00:11;40.17;;;22.97;;
53145;SDS011;39042;53.150;5.898;2024-01-30T03:02:37;34.03;;;21.92;;
53145;SDS011;39042;53.150;5.898;2024-01-30T03:05:04;34.93;;;22.33;;
53145;SDS011;39042;53.150;5.898;2024-01-30T03:07:30;34.83;;;21.92;;
53145;SDS011;39042;53.150;5.898;2024-01-30T03:09:56;36.47;;;21.60;;
53145;SDS011;39042;53.150;5.898;2024-01-30T03:12:22;34.27;;;21.30;;
53145;SDS011;39042;53.150;5.898;2024-01-30T03:14:48;26.53;;;16.97;;
53145;SDS011;39042;53.150;5.898;2024-01-30T03:17:14;40.10;;;22.65;;
53145;SDS011;39042;53.150;5.898;2024-01-30T03:19:40;34.20;;;20.83;;
53145;SDS011;39042;53.150;5.898;2024-01-30T03:22:06;36.73;;;22.00;;
53145;SDS011;39042;53.150;5.898;2024-01-30T03:24:32;34.60;;;21.02;;
53145;SDS011;39042;53.150;5.898;2024-01-30T03:26:58;31.10;;;20.83;;
53145;SDS011;39042;53.150;5.898;2024-01-30T03:29:24;31.57;;;20.63;;
53145;SDS011;39042;53.150;5.898;2024-01-30T03:31:50;35.17;;;21.20;;
53145;SDS011;39042;53.150;5.898;2024-01-30T03:34:15;35.10;;;21.60;;
53145;SDS011;39042;53.150;5.898;2024-01-30T03:36:41;33.47;;;20.90;;
53145;SDS011;39042;53.150;5.898;2024-01-30T03:39:07;35.30;;;21.47;;
53145;SDS011;39042;53.150;5.898;2024-01-30T03:41:33;35.80;;;20.63;;
53145;SDS011;39042;53.150;5.898;2024-01-30T03:43:59;33.70;;;21.13;;
53145;SDS011;39042;53.150;5.898;2024-01-30T03:46:25;36.63;;;20.80;;
53145;SDS011;39042;53.150;5.898;2024-01-30T03:48:50;33.00;;;20.20;;
53145;SDS011;39042;53.150;5.898;2024-01-30T03:51:16;35.70;;;21.10;;
53145;SDS011;39042;53.150;5.898;2024-01-30T03:53:42;33.43;;;21.20;;
53145;SDS011;39042;53.150;5.898;2024-01-30T03:56:09;35.92;;;21.08;;
53145;SDS011;39042;53.150;5.898;2024-01-30T03:58:35;31.67;;;19.60;;
53145;SDS011;39042;53.150;5.898;2024-01-30T04:01:01;28.63;;;16.63;;
53145;SDS011;39042;53.150;5.898;2024-01-30T04:03:27;33.15;;;20.25;;
53145;SDS011;39042;53.150;5.898;2024-01-30T04:05:53;32.90;;;19.80;;
53145;SDS011;39042;53.150;5.898;2024-01-30T04:08:19;35.72;;;19.85;;
53145;SDS011;39042;53.150;5.898;2024-01-30T04:10:45;31.13;;;19.92;;
53145;SDS011;39042;53.150;5.898;2024-01-30T04:13:12;33.38;;;19.48;;
53145;SDS011;39042;53.150;5.898;2024-01-30T04:15:38;25.95;;;14.48;;
53145;SDS011;39042;53.150;5.898;2024-01-30T04:18:04;37.58;;;20.38;;
53145;SDS011;39042;53.150;5.898;2024-01-30T04:20:30;31.48;;;19.50;;
53145;SDS011;39042;53.150;5.898;2024-01-30T04:22:56;23.57;;;14.57;;
53145;SDS011;39042;53.150;5.898;2024-01-30T04:25:22;30.67;;;18.70;;
53145;SDS011;39042;53.150;5.898;2024-01-30T04:27:48;28.63;;;18.93;;
53145;SDS011;39042;53.150;5.898;2024-01-30T04:30:13;32.15;;;18.88;;
53145;SDS011;39042;53.150;5.898;2024-01-30T04:32:40;30.23;;;19.08;;
53145;SDS011;39042;53.150;5.898;2024-01-30T04:35:06;27.80;;;17.73;;
53145;SDS011;39042;53.150;5.898;2024-01-30T04:37:32;28.85;;;18.23;;
53145;SDS011;39042;53.150;5.898;2024-01-30T04:39:58;26.50;;;17.25;;
53145;SDS011;39042;53.150;5.898;2024-01-30T04:42:23;28.70;;;17.03;;
53145;SDS011;39042;53.150;5.898;2024-01-30T04:44:49;29.87;;;17.67;;
53145;SDS011;39042;53.150;5.898;2024-01-30T04:47:15;25.85;;;16.15;;
53145;SDS011;39042;53.150;5.898;2024-01-30T04:49:41;31.23;;;17.90;;
53145;SDS011;39042;53.150;5.898;2024-01-30T04:52:08;28.98;;;17.60;;
53145;SDS011;39042;53.150;5.898;2024-01-30T04:54:34;30.17;;;16.88;;
53145;SDS011;39042;53.150;5.898;2024-01-30T04:57:03;26.70;;;16.55;;
53145;SDS011;39042;53.150;5.898;2024-01-30T04:59:33;28.77;;;16.52;;
53145;SDS011;39042;53.150;5.898;2024-01-30T05:01:59;25.37;;;16.00;;
53145;SDS011;39042;53.150;5.898;2024-01-30T05:04:25;25.13;;;15.70;;
53145;SDS011;39042;53.150;5.898;2024-01-30T05:06:51;25.10;;;16.00;;
53145;SDS011;39042;53.150;5.898;2024-01-30T05:09:16;26.00;;;15.60;;
53145;SDS011;39042;53.150;5.898;2024-01-30T05:11:42;27.00;;;16.60;;
53145;SDS011;39042;53.150;5.898;2024-01-30T05:14:08;27.83;;;16.37;;
53145;SDS011;39042;53.150;5.898;2024-01-30T05:16:34;27.70;;;17.00;;
53145;SDS011;39042;53.150;5.898;2024-01-30T05:19:00;25.13;;;15.63;;
53145;SDS011;39042;53.150;5.898;2024-01-30T05:21:26;19.83;;;12.40;;
53145;SDS011;39042;53.150;5.898;2024-01-30T05:23:52;27.47;;;16.67;;
53145;SDS011;39042;53.150;5.898;2024-01-30T05:26:18;21.30;;;14.47;;
53145;SDS011;39042;53.150;5.898;2024-01-30T05:28:43;25.50;;;16.47;;
53145;SDS011;39042;53.150;5.898;2024-01-30T05:31:09;23.50;;;15.35;;
53145;SDS011;39042;53.150;5.898;2024-01-30T05:33:35;22.45;;;15.15;;
53145;SDS011;39042;53.150;5.898;2024-01-30T05:36:02;23.67;;;15.20;;
53145;SDS011;39042;53.150;5.898;2024-01-30T05:38:28;23.58;;;15.18;;
53145;SDS011;39042;53.150;5.898;2024-01-30T05:40:54;24.80;;;15.57;;
53145;SDS011;39042;53.150;5.898;2024-01-30T05:43:20;26.27;;;14.73;;
53145;SDS011;39042;53.150;5.898;2024-01-30T05:45:46;23.70;;;15.13;;
53145;SDS011;39042;53.150;5.898;2024-01-30T05:48:12;22.60;;;14.97;;
53145;SDS011;39042;53.150;5.898;2024-01-30T05:50:38;23.07;;;14.93;;
53145;SDS011;39042;53.150;5.898;2024-01-30T05:53:03;19.67;;;11.37;;
53145;SDS011;39042;53.150;5.898;2024-01-30T05:55:29;23.33;;;14.90;;
53145;SDS011;39042;53.150;5.898;2024-01-30T05:57:55;23.60;;;14.70;;
53145;SDS011;39042;53.150;5.898;2024-01-30T06:00:21;22.48;;;14.70;;
53145;SDS011;39042;53.150;5.898;2024-01-30T06:02:47;21.73;;;14.93;;
53145;SDS011;39042;53.150;5.898;2024-01-30T06:05:13;24.47;;;14.77;;
53145;SDS011;39042;53.150;5.898;2024-01-30T06:07:38;18.13;;;10.60;;
53145;SDS011;39042;53.150;5.898;2024-01-30T06:10:04;20.83;;;14.27;;
53145;SDS011;39042;53.150;5.898;2024-01-30T06:12:31;23.40;;;14.75;;
53145;SDS011;39042;53.150;5.898;2024-01-30T06:14:56;25.13;;;14.37;;
53145;SDS011;39042;53.150;5.898;2024-01-30T06:17:23;22.20;;;14.70;;
53145;SDS011;39042;53.150;5.898;2024-01-30T06:19:49;23.05;;;14.68;;
53145;SDS011;39042;53.150;5.898;2024-01-30T06:22:15;21.83;;;13.52;;
53145;SDS011;39042;53.150;5.898;2024-01-30T06:24:41;23.02;;;14.25;;
53145;SDS011;39042;53.150;5.898;2024-01-30T06:27:10;23.75;;;14.45;;
53145;SDS011;39042;53.150;5.898;2024-01-30T06:29:36;18.75;;;10.73;;
53145;SDS011;39042;53.150;5.898;2024-01-30T06:32:02;22.40;;;14.93;;
53145;SDS011;39042;53.150;5.898;2024-01-30T06:34:28;19.38;;;11.07;;
53145;SDS011;39042;53.150;5.898;2024-01-30T06:36:54;25.17;;;14.93;;
53145;SDS011;39042;53.150;5.898;2024-01-30T06:39:20;22.60;;;14.23;;
53145;SDS011;39042;53.150;5.898;2024-01-30T06:41:46;24.30;;;15.70;;
53145;SDS011;39042;53.150;5.898;2024-01-30T06:44:12;23.23;;;14.70;;
53145;SDS011;39042;53.150;5.898;2024-01-30T06:46:38;18.65;;;11.05;;
53145;SDS011;39042;53.150;5.898;2024-01-30T06:49:04;22.40;;;14.43;;
53145;SDS011;39042;53.150;5.898;2024-01-30T06:51:30;24.40;;;14.70;;
53145;SDS011;39042;53.150;5.898;2024-01-30T06:53:56;23.70;;;14.15;;
53145;SDS011;39042;53.150;5.898;2024-01-30T06:56:22;22.67;;;14.73;;
53145;SDS011;39042;53.150;5.898;2024-01-30T06:58:48;20.90;;;13.97;;
53145;SDS011;39042;53.150;5.898;2024-01-30T07:01:14;22.90;;;14.43;;
53145;SDS011;39042;53.150;5.898;2024-01-30T07:03:41;23.25;;;14.25;;
53145;SDS011;39042;53.150;5.898;2024-01-30T07:06:07;23.20;;;14.50;;
53145;SDS011;39042;53.150;5.898;2024-01-30T07:10:59;24.20;;;14.18;;
53145;SDS011;39042;53.150;5.898;2024-01-30T07:13:27;22.48;;;13.45;;
53145;SDS011;39042;53.150;5.898;2024-01-30T07:15:53;22.95;;;14.00;;
53145;SDS011;39042;53.150;5.898;2024-01-30T07:18:19;21.20;;;13.53;;
53145;SDS011;39042;53.150;5.898;2024-01-30T07:20:45;24.20;;;13.93;;
53145;SDS011;39042;53.150;5.898;2024-01-30T07:25:39;21.50;;;14.50;;
53145;SDS011;39042;53.150;5.898;2024-01-30T07:28:09;19.45;;;12.57;;
53145;SDS011;39042;53.150;5.898;2024-01-30T07:30:36;22.90;;;13.85;;
53145;SDS011;39042;53.150;5.898;2024-01-30T07:33:02;22.93;;;13.07;;
53145;SDS011;39042;53.150;5.898;2024-01-30T07:35:28;21.08;;;13.48;;
53145;SDS011;39042;53.150;5.898;2024-01-30T07:37:53;21.97;;;13.63;;
53145;SDS011;39042;53.150;5.898;2024-01-30T07:40:19;19.20;;;13.00;;
53145;SDS011;39042;53.150;5.898;2024-01-30T07:42:45;22.37;;;12.67;;
53145;SDS011;39042;53.150;5.898;2024-01-30T07:45:11;22.63;;;13.20;;
53145;SDS011;39042;53.150;5.898;2024-01-30T07:47:37;18.20;;;12.10;;
53145;SDS011;39042;53.150;5.898;2024-01-30T07:50:03;19.73;;;13.18;;
53145;SDS011;39042;53.150;5.898;2024-01-30T07:52:29;19.92;;;12.75;;
53145;SDS011;39042;53.150;5.898;2024-01-30T07:57:22;20.90;;;13.30;;
53145;SDS011;39042;53.150;5.898;2024-01-30T07:59:47;22.03;;;12.67;;
53145;SDS011;39042;53.150;5.898;2024-01-30T08:02:13;22.30;;;13.30;;
53145;SDS011;39042;53.150;5.898;2024-01-30T08:04:39;20.77;;;12.90;;
53145;SDS011;39042;53.150;5.898;2024-01-30T08:07:05;16.43;;;9.73;;
53145;SDS011;39042;53.150;5.898;2024-01-30T08:09:31;20.87;;;12.33;;
53145;SDS011;39042;53.150;5.898;2024-01-30T08:11:56;19.03;;;13.60;;
53145;SDS011;39042;53.150;5.898;2024-01-30T08:14:22;20.70;;;13.33;;
53145;SDS011;39042;53.150;5.898;2024-01-30T08:16:48;18.97;;;12.80;;
53145;SDS011;39042;53.150;5.898;2024-01-30T08:19:14;22.37;;;12.97;;
53145;SDS011;39042;53.150;5.898;2024-01-30T08:21:40;22.70;;;12.98;;
53145;SDS011;39042;53.150;5.898;2024-01-30T08:24:07;18.70;;;12.77;;
53145;SDS011;39042;53.150;5.898;2024-01-30T08:26:33;20.63;;;12.10;;
53145;SDS011;39042;53.150;5.898;2024-01-30T08:28:59;24.55;;;12.50;;
53145;SDS011;39042;53.150;5.898;2024-01-30T08:31:25;18.83;;;12.17;;
53145;SDS011;39042;53.150;5.898;2024-01-30T08:33:51;17.92;;;11.48;;
53145;SDS011;39042;53.150;5.898;2024-01-30T08:36:16;21.83;;;12.53;;
53145;SDS011;39042;53.150;5.898;2024-01-30T08:38:42;24.38;;;12.65;;
53145;SDS011;39042;53.150;5.898;2024-01-30T08:41:08;19.75;;;11.45;;
53145;SDS011;39042;53.150;5.898;2024-01-30T08:43:34;21.27;;;12.77;;
53145;SDS011;39042;53.150;5.898;2024-01-30T08:46:01;21.23;;;12.25;;
53145;SDS011;39042;53.150;5.898;2024-01-30T08:48:28;22.40;;;12.60;;
53145;SDS011;39042;53.150;5.898;2024-01-30T08:50:54;18.40;;;11.93;;
53145;SDS011;39042;53.150;5.898;2024-01-30T08:53:20;18.10;;;10.68;;
53145;SDS011;39042;53.150;5.898;2024-01-30T08:55:46;24.48;;;12.38;;
53145;SDS011;39042;53.150;5.898;2024-01-30T08:58:12;21.13;;;11.10;;
53145;SDS011;39042;53.150;5.898;2024-01-30T09:00:38;18.25;;;11.98;;
53145;SDS011;39042;53.150;5.898;2024-01-30T09:03:04;21.47;;;11.17;;
53145;SDS011;39042;53.150;5.898;2024-01-30T09:05:30;20.03;;;10.83;;
53145;SDS011;39042;53.150;5.898;2024-01-30T09:07:55;15.80;;;9.57;;
53145;SDS011;39042;53.150;5.898;2024-01-30T09:10:21;18.67;;;10.80;;
53145;SDS011;39042;53.150;5.898;2024-01-30T09:12:47;21.07;;;11.53;;
53145;SDS011;39042;53.150;5.898;2024-01-30T09:15:14;18.60;;;10.75;;
53145;SDS011;39042;53.150;5.898;2024-01-30T09:17:40;15.10;;;8.43;;
53145;SDS011;39042;53.150;5.898;2024-01-30T09:20:06;18.08;;;10.20;;
53145;SDS011;39042;53.150;5.898;2024-01-30T09:22:32;19.80;;;10.98;;
53145;SDS011;39042;53.150;5.898;2024-01-30T09:24:58;17.33;;;10.17;;
53145;SDS011;39042;53.150;5.898;2024-01-30T09:27:24;17.77;;;11.27;;
53145;SDS011;39042;53.150;5.898;2024-01-30T09:29:50;20.67;;;10.37;;
53145;SDS011;39042;53.150;5.898;2024-01-30T09:32:15;18.23;;;10.90;;
53145;SDS011;39042;53.150;5.898;2024-01-30T09:34:42;21.50;;;11.55;;
53145;SDS011;39042;53.150;5.898;2024-01-30T09:37:08;18.00;;;10.90;;
53145;SDS011;39042;53.150;5.898;2024-01-30T09:39:34;24.40;;;7.97;;
53145;SDS011;39042;53.150;5.898;2024-01-30T09:42:18;17.90;;;10.93;;
53145;SDS011;39042;53.150;5.898;2024-01-30T09:44:51;18.70;;;10.70;;
53145;SDS011;39042;53.150;5.898;2024-01-30T09:47:19;17.83;;;10.75;;
53145;SDS011;39042;53.150;5.898;2024-01-30T09:49:44;16.40;;;9.97;;
53145;SDS011;39042;53.150;5.898;2024-01-30T09:52:11;22.25;;;10.68;;
53145;SDS011;39042;53.150;5.898;2024-01-30T09:54:38;16.38;;;10.00;;
53145;SDS011;39042;53.150;5.898;2024-01-30T09:57:04;20.17;;;10.60;;
53145;SDS011;39042;53.150;5.898;2024-01-30T09:59:30;17.15;;;9.85;;
53145;SDS011;39042;53.150;5.898;2024-01-30T10:01:57;17.65;;;10.93;;
53145;SDS011;39042;53.150;5.898;2024-01-30T10:04:23;18.80;;;9.98;;
53145;SDS011;39042;53.150;5.898;2024-01-30T10:06:49;14.80;;;10.47;;
53145;SDS011;39042;53.150;5.898;2024-01-30T10:09:16;21.55;;;10.82;;
53145;SDS011;39042;53.150;5.898;2024-01-30T10:11:42;15.17;;;10.37;;
53145;SDS011;39042;53.150;5.898;2024-01-30T10:14:08;16.90;;;10.53;;
53145;SDS011;39042;53.150;5.898;2024-01-30T10:16:34;17.88;;;10.48;;
53145;SDS011;39042;53.150;5.898;2024-01-30T10:19:00;19.77;;;11.20;;
53145;SDS011;39042;53.150;5.898;2024-01-30T10:21:26;19.58;;;10.43;;
53145;SDS011;39042;53.150;5.898;2024-01-30T10:23:52;19.27;;;10.88;;
53145;SDS011;39042;53.150;5.898;2024-01-30T10:26:18;18.67;;;10.35;;
53145;SDS011;39042;53.150;5.898;2024-01-30T10:28:44;13.83;;;9.27;;
53145;SDS011;39042;53.150;5.898;2024-01-30T10:31:10;19.03;;;8.57;;
53145;SDS011;39042;53.150;5.898;2024-01-30T10:33:36;15.70;;;8.13;;
53145;SDS011;39042;53.150;5.898;2024-01-30T10:36:05;15.02;;;7.20;;
53145;SDS011;39042;53.150;5.898;2024-01-30T10:38:32;11.98;;;7.00;;
53145;SDS011;39042;53.150;5.898;2024-01-30T10:40:59;14.90;;;7.05;;
53145;SDS011;39042;53.150;5.898;2024-01-30T10:43:35;17.15;;;6.70;;
53145;SDS011;39042;53.150;5.898;2024-01-30T10:46:09;14.50;;;6.00;;
53145;SDS011;39042;53.150;5.898;2024-01-30T10:48:46;16.58;;;5.15;;
53145;SDS011;39042;53.150;5.898;2024-01-30T10:51:25;11.38;;;3.97;;
53145;SDS011;39042;53.150;5.898;2024-01-30T10:53:52;10.38;;;2.38;;
53145;SDS011;39042;53.150;5.898;2024-01-30T10:56:22;5.85;;;1.98;;
53145;SDS011;39042;53.150;5.898;2024-01-30T10:58:51;8.50;;;1.98;;
53145;SDS011;39042;53.150;5.898;2024-01-30T11:01:22;10.30;;;1.45;;
53145;SDS011;39042;53.150;5.898;2024-01-30T11:03:49;7.85;;;1.52;;
53145;SDS011;39042;53.150;5.898;2024-01-30T11:06:17;4.20;;;0.65;;
53145;SDS011;39042;53.150;5.898;2024-01-30T11:08:46;5.07;;;0.70;;
53145;SDS011;39042;53.150;5.898;2024-01-30T11:12:11;3.80;;;1.17;;
53145;SDS011;39042;53.150;5.898;2024-01-30T11:14:31;6.38;;;1.52;;
53145;SDS011;39042;53.150;5.898;2024-01-30T11:16:57;7.28;;;1.40;;
53145;SDS011;39042;53.150;5.898;2024-01-30T11:19:24;7.38;;;0.52;;
53145;SDS011;39042;53.150;5.898;2024-01-30T11:24:25;5.45;;;1.10;;
53145;SDS011;39042;53.150;5.898;2024-01-30T11:26:58;4.75;;;1.23;;
53145;SDS011;39042;53.150;5.898;2024-01-30T11:29:25;5.20;;;0.95;;
53145;SDS011;39042;53.150;5.898;2024-01-30T11:31:52;4.65;;;0.85;;
53145;SDS011;39042;53.150;5.898;2024-01-30T11:34:23;4.32;;;1.20;;
53145;SDS011;39042;53.150;5.898;2024-01-30T11:36:53;9.75;;;1.02;;
53145;SDS011;39042;53.150;5.898;2024-01-30T11:39:25;7.85;;;1.48;;
53145;SDS011;39042;53.150;5.898;2024-01-30T11:41:52;7.65;;;1.83;;
53145;SDS011;39042;53.150;5.898;2024-01-30T11:44:19;6.57;;;1.40;;
53145;SDS011;39042;53.150;5.898;2024-01-30T11:46:49;8.30;;;1.77;;
53145;SDS011;39042;53.150;5.898;2024-01-30T11:49:18;5.32;;;1.40;;
53145;SDS011;39042;53.150;5.898;2024-01-30T11:51:47;10.35;;;3.33;;
53145;SDS011;39042;53.150;5.898;2024-01-30T11:54:17;3.92;;;1.08;;
53145;SDS011;39042;53.150;5.898;2024-01-30T11:56:43;4.72;;;0.95;;
53145;SDS011;39042;53.150;5.898;2024-01-30T11:59:09;7.57;;;1.30;;
53145;SDS011;39042;53.150;5.898;2024-01-30T12:01:35;6.47;;;0.90;;
53145;SDS011;39042;53.150;5.898;2024-01-30T12:04:01;7.05;;;1.25;;
53145;SDS011;39042;53.150;5.898;2024-01-30T12:06:28;4.95;;;1.10;;
53145;SDS011;39042;53.150;5.898;2024-01-30T12:09:01;7.47;;;1.10;;
53145;SDS011;39042;53.150;5.898;2024-01-30T12:11:33;4.10;;;0.52;;
53145;SDS011;39042;53.150;5.898;2024-01-30T12:14:09;5.72;;;1.00;;
53145;SDS011;39042;53.150;5.898;2024-01-30T12:16:35;3.83;;;1.02;;
53145;SDS011;39042;53.150;5.898;2024-01-30T12:19:01;6.10;;;0.87;;
53145;SDS011;39042;53.150;5.898;2024-01-30T12:21:27;3.45;;;0.75;;
53145;SDS011;39042;53.150;5.898;2024-01-30T12:23:54;3.10;;;1.00;;
53145;SDS011;39042;53.150;5.898;2024-01-30T12:26:20;4.53;;;0.90;;
53145;SDS011;39042;53.150;5.898;2024-01-30T12:28:49;4.22;;;0.70;;
53145;SDS011;39042;53.150;5.898;2024-01-30T12:31:15;4.85;;;0.60;;
53145;SDS011;39042;53.150;5.898;2024-01-30T12:33:41;4.33;;;0.70;;
53145;SDS011;39042;53.150;5.898;2024-01-30T12:36:07;5.35;;;0.98;;
53145;SDS011;39042;53.150;5.898;2024-01-30T12:38:33;4.32;;;0.88;;
53145;SDS011;39042;53.150;5.898;2024-01-30T12:40:59;6.68;;;0.95;;
53145;SDS011;39042;53.150;5.898;2024-01-30T12:43:25;8.10;;;1.27;;
53145;SDS011;39042;53.150;5.898;2024-01-30T12:45:54;7.30;;;1.70;;
53145;SDS011;39042;53.150;5.898;2024-01-30T12:48:20;3.28;;;0.93;;
53145;SDS011;39042;53.150;5.898;2024-01-30T12:50:46;7.13;;;1.10;;
53145;SDS011;39042;53.150;5.898;2024-01-30T12:53:12;5.40;;;1.20;;
53145;SDS011;39042;53.150;5.898;2024-01-30T12:55:38;5.93;;;1.65;;
53145;SDS011;39042;53.150;5.898;2024-01-30T12:58:04;5.85;;;1.92;;
53145;SDS011;39042;53.150;5.898;2024-01-30T13:02:56;4.88;;;2.20;;
53145;SDS011;39042;53.150;5.898;2024-01-30T13:05:23;8.48;;;2.25;;
53145;SDS011;39042;53.150;5.898;2024-01-30T13:07:50;8.93;;;2.60;;
53145;SDS011;39042;53.150;5.898;2024-01-30T13:10:16;8.00;;;2.95;;
53145;SDS011;39042;53.150;5.898;2024-01-30T13:12:42;7.50;;;2.65;;
53145;SDS011;39042;53.150;5.898;2024-01-30T13:15:08;4.87;;;2.67;;
53145;SDS011;39042;53.150;5.898;2024-01-30T13:17:36;10.15;;;3.58;;
53145;SDS011;39042;53.150;5.898;2024-01-30T13:20:02;4.68;;;2.90;;
53145;SDS011;39042;53.150;5.898;2024-01-30T13:22:29;6.68;;;3.67;;
53145;SDS011;39042;53.150;5.898;2024-01-30T13:24:55;7.10;;;2.70;;
53145;SDS011;39042;53.150;5.898;2024-01-30T13:27:21;6.00;;;2.80;;
53145;SDS011;39042;53.150;5.898;2024-01-30T13:29:46;7.77;;;3.00;;
53145;SDS011;39042;53.150;5.898;2024-01-30T13:32:12;5.30;;;2.43;;
53145;SDS011;39042;53.150;5.898;2024-01-30T13:34:38;8.47;;;3.60;;
53145;SDS011;39042;53.150;5.898;2024-01-30T13:39:31;12.32;;;4.70;;
53145;SDS011;39042;53.150;5.898;2024-01-30T13:41:57;8.03;;;3.97;;
53145;SDS011;39042;53.150;5.898;2024-01-30T13:44:22;9.03;;;4.50;;
53145;SDS011;39042;53.150;5.898;2024-01-30T13:46:48;11.33;;;3.93;;
53145;SDS011;39042;53.150;5.898;2024-01-30T13:49:14;7.30;;;3.90;;
53145;SDS011;39042;53.150;5.898;2024-01-30T13:51:40;17.43;;;6.20;;
53145;SDS011;39042;53.150;5.898;2024-01-30T13:54:06;12.33;;;4.93;;
53145;SDS011;39042;53.150;5.898;2024-01-30T13:56:32;15.90;;;5.00;;
53145;SDS011;39042;53.150;5.898;2024-01-30T13:58:58;12.20;;;4.50;;
53145;SDS011;39042;53.150;5.898;2024-01-30T14:01:25;13.75;;;4.43;;
53145;SDS011;39042;53.150;5.898;2024-01-30T14:03:51;11.60;;;3.90;;
53145;SDS011;39042;53.150;5.898;2024-01-30T14:06:16;9.90;;;4.30;;
53145;SDS011;39042;53.150;5.898;2024-01-30T14:08:43;8.40;;;4.55;;
53145;SDS011;39042;53.150;5.898;2024-01-30T14:11:08;9.83;;;4.57;;
53145;SDS011;39042;53.150;5.898;2024-01-30T14:13:35;12.10;;;4.85;;
53145;SDS011;39042;53.150;5.898;2024-01-30T14:16:00;11.53;;;5.07;;
53145;SDS011;39042;53.150;5.898;2024-01-30T14:18:26;12.43;;;4.70;;
53145;SDS011;39042;53.150;5.898;2024-01-30T14:20:52;13.10;;;5.07;;
53145;SDS011;39042;53.150;5.898;2024-01-30T14:23:19;9.48;;;5.82;;
53145;SDS011;39042;53.150;5.898;2024-01-30T14:25:45;7.73;;;4.80;;
53145;SDS011;39042;53.150;5.898;2024-01-30T14:28:11;10.80;;;5.00;;
53145;SDS011;39042;53.150;5.898;2024-01-30T14:30:37;11.07;;;5.10;;
53145;SDS011;39042;53.150;5.898;2024-01-30T14:33:03;9.40;;;4.63;;
53145;SDS011;39042;53.150;5.898;2024-01-30T14:35:29;10.35;;;4.47;;
53145;SDS011;39042;53.150;5.898;2024-01-30T14:37:55;6.13;;;3.35;;
53145;SDS011;39042;53.150;5.898;2024-01-30T14:40:21;7.07;;;3.20;;
53145;SDS011;39042;53.150;5.898;2024-01-30T14:42:46;5.93;;;3.20;;
53145;SDS011;39042;53.150;5.898;2024-01-30T14:45:12;9.80;;;3.13;;
53145;SDS011;39042;53.150;5.898;2024-01-30T14:47:38;6.33;;;2.60;;